< < Back
Terminal Aerodrome Forecast


Current Version              Previous Versions:   1  2  3  4  5  6  7  8  9  

Terminal Aerodrome Forecast

404
FTUS44 KMOB 180500
TAFPNS
TAF
KPNS 180539Z 1806/1906 36004KT P6SM BKN250
     FM181500 04005KT P6SM SCT100 BKN250
     FM190100 36003KT P6SM BKN080=

Latest METAR

127
SAUS70 KWBC 190300
MTRPNS
METAR KPNS 190253Z 00000KT 10SM FEW100 SCT120 11/08 A3015 RMK AO2 SLP212
T01110078 50007


USA.gov is the U.S. government's official web portal to all federal, state and local government web resources and services.